sensor_id;sensor_type;location;lat;lon;timestamp;P1;durP1;ratioP1;P2;durP2;ratioP2
13807;SDS011;40769;51.512;5.494;2022-10-31T00:01:12;5.35;;;4.85;;
13807;SDS011;40769;51.512;5.494;2022-10-31T00:03:39;6.05;;;5.55;;
13807;SDS011;40769;51.512;5.494;2022-10-31T00:06:04;5.88;;;5.38;;
13807;SDS011;40769;51.512;5.494;2022-10-31T00:08:30;5.55;;;5.15;;
13807;SDS011;40769;51.512;5.494;2022-10-31T00:10:56;6.10;;;5.50;;
13807;SDS011;40769;51.512;5.494;2022-10-31T00:13:21;5.90;;;5.38;;
13807;SDS011;40769;51.512;5.494;2022-10-31T00:15:47;5.35;;;4.95;;
13807;SDS011;40769;51.512;5.494;2022-10-31T00:18:12;5.55;;;5.15;;
13807;SDS011;40769;51.512;5.494;2022-10-31T00:20:38;5.47;;;4.90;;
13807;SDS011;40769;51.512;5.494;2022-10-31T00:23:04;5.00;;;4.50;;
13807;SDS011;40769;51.512;5.494;2022-10-31T00:25:33;5.00;;;4.60;;
13807;SDS011;40769;51.512;5.494;2022-10-31T00:28:01;5.38;;;4.88;;
13807;SDS011;40769;51.512;5.494;2022-10-31T00:30:27;6.10;;;5.60;;
13807;SDS011;40769;51.512;5.494;2022-10-31T00:32:52;5.30;;;4.72;;
13807;SDS011;40769;51.512;5.494;2022-10-31T00:35:18;5.10;;;4.60;;
13807;SDS011;40769;51.512;5.494;2022-10-31T00:37:43;5.50;;;5.00;;
13807;SDS011;40769;51.512;5.494;2022-10-31T00:40:09;5.10;;;4.70;;
13807;SDS011;40769;51.512;5.494;2022-10-31T00:42:35;5.53;;;5.03;;
13807;SDS011;40769;51.512;5.494;2022-10-31T00:45:01;5.40;;;4.82;;
13807;SDS011;40769;51.512;5.494;2022-10-31T00:47:26;5.13;;;4.72;;
13807;SDS011;40769;51.512;5.494;2022-10-31T00:49:52;5.45;;;4.95;;
13807;SDS011;40769;51.512;5.494;2022-10-31T00:52:17;4.80;;;4.50;;
13807;SDS011;40769;51.512;5.494;2022-10-31T00:54:43;4.85;;;4.43;;
13807;SDS011;40769;51.512;5.494;2022-10-31T00:57:08;4.75;;;4.35;;
13807;SDS011;40769;51.512;5.494;2022-10-31T00:59:34;4.78;;;4.38;;
13807;SDS011;40769;51.512;5.494;2022-10-31T01:01:59;5.10;;;4.70;;
13807;SDS011;40769;51.512;5.494;2022-10-31T01:04:25;4.28;;;3.95;;
13807;SDS011;40769;51.512;5.494;2022-10-31T01:06:50;4.75;;;4.35;;
13807;SDS011;40769;51.512;5.494;2022-10-31T01:09:16;5.80;;;5.30;;
13807;SDS011;40769;51.512;5.494;2022-10-31T01:11:41;5.40;;;4.65;;
13807;SDS011;40769;51.512;5.494;2022-10-31T01:14:08;5.03;;;4.63;;
13807;SDS011;40769;51.512;5.494;2022-10-31T01:16:33;4.68;;;4.32;;
13807;SDS011;40769;51.512;5.494;2022-10-31T01:18:59;4.65;;;4.32;;
13807;SDS011;40769;51.512;5.494;2022-10-31T01:21:25;4.78;;;4.43;;
13807;SDS011;40769;51.512;5.494;2022-10-31T01:23:53;5.57;;;4.55;;
13807;SDS011;40769;51.512;5.494;2022-10-31T01:26:20;4.38;;;3.97;;
13807;SDS011;40769;51.512;5.494;2022-10-31T01:28:55;4.55;;;4.15;;
13807;SDS011;40769;51.512;5.494;2022-10-31T01:31:26;5.22;;;4.72;;
13807;SDS011;40769;51.512;5.494;2022-10-31T01:33:56;4.80;;;4.50;;
13807;SDS011;40769;51.512;5.494;2022-10-31T01:36:23;4.82;;;4.40;;
13807;SDS011;40769;51.512;5.494;2022-10-31T01:38:53;4.72;;;4.30;;
13807;SDS011;40769;51.512;5.494;2022-10-31T01:41:22;4.90;;;4.50;;
13807;SDS011;40769;51.512;5.494;2022-10-31T01:46:42;5.05;;;4.65;;
13807;SDS011;40769;51.512;5.494;2022-10-31T01:49:09;5.20;;;4.75;;
13807;SDS011;40769;51.512;5.494;2022-10-31T01:51:41;5.10;;;4.60;;
13807;SDS011;40769;51.512;5.494;2022-10-31T01:54:13;5.05;;;4.65;;
13807;SDS011;40769;51.512;5.494;2022-10-31T01:56:44;4.30;;;3.90;;
13807;SDS011;40769;51.512;5.494;2022-10-31T01:59:18;4.30;;;3.90;;
13807;SDS011;40769;51.512;5.494;2022-10-31T02:01:46;4.25;;;3.85;;
13807;SDS011;40769;51.512;5.494;2022-10-31T02:04:15;4.10;;;3.80;;
13807;SDS011;40769;51.512;5.494;2022-10-31T02:06:43;5.13;;;4.63;;
13807;SDS011;40769;51.512;5.494;2022-10-31T02:09:25;5.00;;;4.50;;
13807;SDS011;40769;51.512;5.494;2022-10-31T02:11:52;4.18;;;3.88;;
13807;SDS011;40769;51.512;5.494;2022-10-31T02:14:22;4.07;;;3.78;;
13807;SDS011;40769;51.512;5.494;2022-10-31T02:16:49;4.20;;;3.80;;
13807;SDS011;40769;51.512;5.494;2022-10-31T02:19:17;3.80;;;3.50;;
13807;SDS011;40769;51.512;5.494;2022-10-31T02:21:56;4.40;;;4.07;;
13807;SDS011;40769;51.512;5.494;2022-10-31T02:30:03;4.25;;;3.47;;
13807;SDS011;40769;51.512;5.494;2022-10-31T02:38:30;3.70;;;3.40;;
13807;SDS011;40769;51.512;5.494;2022-10-31T02:41:18;3.35;;;3.10;;
13807;SDS011;40769;51.512;5.494;2022-10-31T02:46:51;3.60;;;3.30;;
13807;SDS011;40769;51.512;5.494;2022-10-31T02:49:32;3.80;;;3.50;;
13807;SDS011;40769;51.512;5.494;2022-10-31T02:52:19;3.58;;;3.28;;
13807;SDS011;40769;51.512;5.494;2022-10-31T02:54:46;3.40;;;3.10;;
13807;SDS011;40769;51.512;5.494;2022-10-31T02:57:13;3.58;;;3.03;;
13807;SDS011;40769;51.512;5.494;2022-10-31T02:59:44;3.65;;;3.35;;
13807;SDS011;40769;51.512;5.494;2022-10-31T03:02:16;4.00;;;3.70;;
13807;SDS011;40769;51.512;5.494;2022-10-31T03:05:08;3.58;;;3.28;;
13807;SDS011;40769;51.512;5.494;2022-10-31T03:13:12;3.70;;;3.40;;
13807;SDS011;40769;51.512;5.494;2022-10-31T03:15:42;4.45;;;4.00;;
13807;SDS011;40769;51.512;5.494;2022-10-31T03:20:43;4.25;;;3.90;;
13807;SDS011;40769;51.512;5.494;2022-10-31T03:23:15;4.35;;;3.95;;
13807;SDS011;40769;51.512;5.494;2022-10-31T03:25:43;4.30;;;4.00;;
13807;SDS011;40769;51.512;5.494;2022-10-31T03:28:10;4.53;;;4.20;;
13807;SDS011;40769;51.512;5.494;2022-10-31T03:30:41;4.45;;;4.15;;
13807;SDS011;40769;51.512;5.494;2022-10-31T03:33:10;4.45;;;4.07;;
13807;SDS011;40769;51.512;5.494;2022-10-31T03:35:41;4.20;;;3.80;;
13807;SDS011;40769;51.512;5.494;2022-10-31T03:38:11;4.35;;;3.95;;
13807;SDS011;40769;51.512;5.494;2022-10-31T03:40:39;4.50;;;4.10;;
13807;SDS011;40769;51.512;5.494;2022-10-31T03:43:08;4.13;;;3.80;;
13807;SDS011;40769;51.512;5.494;2022-10-31T03:45:43;4.15;;;3.80;;
13807;SDS011;40769;51.512;5.494;2022-10-31T03:48:12;4.07;;;3.78;;
13807;SDS011;40769;51.512;5.494;2022-10-31T03:53:49;4.00;;;3.70;;
13807;SDS011;40769;51.512;5.494;2022-10-31T03:59:09;4.32;;;4.00;;
13807;SDS011;40769;51.512;5.494;2022-10-31T04:01:43;4.10;;;3.80;;
13807;SDS011;40769;51.512;5.494;2022-10-31T04:04:13;4.25;;;3.85;;
13807;SDS011;40769;51.512;5.494;2022-10-31T04:06:40;4.50;;;4.10;;
13807;SDS011;40769;51.512;5.494;2022-10-31T04:09:08;4.15;;;3.75;;
13807;SDS011;40769;51.512;5.494;2022-10-31T04:11:40;4.13;;;3.60;;
13807;SDS011;40769;51.512;5.494;2022-10-31T04:14:12;3.92;;;3.63;;
13807;SDS011;40769;51.512;5.494;2022-10-31T04:16:41;3.92;;;3.63;;
13807;SDS011;40769;51.512;5.494;2022-10-31T04:19:08;3.95;;;3.65;;
13807;SDS011;40769;51.512;5.494;2022-10-31T04:21:35;3.67;;;3.38;;
13807;SDS011;40769;51.512;5.494;2022-10-31T04:24:00;3.75;;;3.45;;
13807;SDS011;40769;51.512;5.494;2022-10-31T04:26:26;3.78;;;3.47;;
13807;SDS011;40769;51.512;5.494;2022-10-31T04:28:52;3.85;;;3.55;;
13807;SDS011;40769;51.512;5.494;2022-10-31T04:31:17;3.10;;;2.90;;
13807;SDS011;40769;51.512;5.494;2022-10-31T04:33:43;3.85;;;3.55;;
13807;SDS011;40769;51.512;5.494;2022-10-31T04:36:08;4.03;;;3.58;;
13807;SDS011;40769;51.512;5.494;2022-10-31T04:38:34;4.72;;;4.32;;
13807;SDS011;40769;51.512;5.494;2022-10-31T04:41:00;4.43;;;4.03;;
13807;SDS011;40769;51.512;5.494;2022-10-31T04:43:25;4.32;;;3.92;;
13807;SDS011;40769;51.512;5.494;2022-10-31T04:45:51;4.07;;;3.78;;
13807;SDS011;40769;51.512;5.494;2022-10-31T04:48:16;4.30;;;4.00;;
13807;SDS011;40769;51.512;5.494;2022-10-31T04:50:42;4.40;;;4.10;;
13807;SDS011;40769;51.512;5.494;2022-10-31T04:53:08;4.78;;;4.38;;
13807;SDS011;40769;51.512;5.494;2022-10-31T04:55:34;4.97;;;4.57;;
13807;SDS011;40769;51.512;5.494;2022-10-31T04:58:00;4.10;;;3.72;;
13807;SDS011;40769;51.512;5.494;2022-10-31T05:00:26;3.80;;;3.50;;
13807;SDS011;40769;51.512;5.494;2022-10-31T05:02:52;3.83;;;3.53;;
13807;SDS011;40769;51.512;5.494;2022-10-31T05:05:20;3.97;;;3.67;;
13807;SDS011;40769;51.512;5.494;2022-10-31T05:07:48;4.88;;;4.47;;
13807;SDS011;40769;51.512;5.494;2022-10-31T05:10:15;4.97;;;4.53;;
13807;SDS011;40769;51.512;5.494;2022-10-31T05:12:50;4.68;;;4.28;;
13807;SDS011;40769;51.512;5.494;2022-10-31T05:15:17;4.28;;;3.88;;
13807;SDS011;40769;51.512;5.494;2022-10-31T05:17:45;4.30;;;3.90;;
13807;SDS011;40769;51.512;5.494;2022-10-31T05:20:11;4.78;;;4.38;;
13807;SDS011;40769;51.512;5.494;2022-10-31T05:22:41;4.65;;;4.25;;
13807;SDS011;40769;51.512;5.494;2022-10-31T05:25:17;4.40;;;4.00;;
13807;SDS011;40769;51.512;5.494;2022-10-31T05:27:45;4.72;;;4.07;;
13807;SDS011;40769;51.512;5.494;2022-10-31T05:30:12;4.20;;;3.85;;
13807;SDS011;40769;51.512;5.494;2022-10-31T05:32:40;6.00;;;4.22;;
13807;SDS011;40769;51.512;5.494;2022-10-31T05:35:08;12.55;;;4.82;;
13807;SDS011;40769;51.512;5.494;2022-10-31T05:37:35;6.30;;;4.30;;
13807;SDS011;40769;51.512;5.494;2022-10-31T05:40:02;4.22;;;3.83;;
13807;SDS011;40769;51.512;5.494;2022-10-31T05:42:28;4.47;;;4.07;;
13807;SDS011;40769;51.512;5.494;2022-10-31T05:44:54;4.47;;;4.07;;
13807;SDS011;40769;51.512;5.494;2022-10-31T05:47:19;5.15;;;4.65;;
13807;SDS011;40769;51.512;5.494;2022-10-31T05:49:45;4.95;;;4.50;;
13807;SDS011;40769;51.512;5.494;2022-10-31T05:52:11;5.22;;;4.72;;
13807;SDS011;40769;51.512;5.494;2022-10-31T05:54:36;5.53;;;5.03;;
13807;SDS011;40769;51.512;5.494;2022-10-31T05:57:02;5.28;;;4.78;;
13807;SDS011;40769;51.512;5.494;2022-10-31T05:59:27;9.40;;;4.90;;
13807;SDS011;40769;51.512;5.494;2022-10-31T06:01:53;9.15;;;4.63;;
13807;SDS011;40769;51.512;5.494;2022-10-31T06:04:18;13.02;;;5.18;;
13807;SDS011;40769;51.512;5.494;2022-10-31T06:06:44;6.53;;;4.65;;
13807;SDS011;40769;51.512;5.494;2022-10-31T06:09:09;6.35;;;4.10;;
13807;SDS011;40769;51.512;5.494;2022-10-31T06:11:35;6.28;;;4.30;;
13807;SDS011;40769;51.512;5.494;2022-10-31T06:14:01;4.75;;;3.97;;
13807;SDS011;40769;51.512;5.494;2022-10-31T06:16:26;4.78;;;4.38;;
13807;SDS011;40769;51.512;5.494;2022-10-31T06:18:52;4.38;;;3.97;;
13807;SDS011;40769;51.512;5.494;2022-10-31T06:21:17;5.60;;;4.30;;
13807;SDS011;40769;51.512;5.494;2022-10-31T06:23:43;6.45;;;4.90;;
13807;SDS011;40769;51.512;5.494;2022-10-31T06:26:08;4.57;;;4.18;;
13807;SDS011;40769;51.512;5.494;2022-10-31T06:28:34;9.43;;;4.47;;
13807;SDS011;40769;51.512;5.494;2022-10-31T06:31:00;4.90;;;4.40;;
13807;SDS011;40769;51.512;5.494;2022-10-31T06:33:25;6.60;;;4.45;;
13807;SDS011;40769;51.512;5.494;2022-10-31T06:35:51;6.97;;;4.53;;
13807;SDS011;40769;51.512;5.494;2022-10-31T06:38:16;4.68;;;4.28;;
13807;SDS011;40769;51.512;5.494;2022-10-31T06:40:42;5.03;;;4.60;;
13807;SDS011;40769;51.512;5.494;2022-10-31T06:43:07;5.30;;;4.82;;
13807;SDS011;40769;51.512;5.494;2022-10-31T06:45:33;7.88;;;4.72;;
13807;SDS011;40769;51.512;5.494;2022-10-31T06:47:59;10.77;;;5.00;;
13807;SDS011;40769;51.512;5.494;2022-10-31T06:50:25;8.00;;;5.20;;
13807;SDS011;40769;51.512;5.494;2022-10-31T06:52:54;11.10;;;4.43;;
13807;SDS011;40769;51.512;5.494;2022-10-31T06:55:21;5.25;;;4.75;;
13807;SDS011;40769;51.512;5.494;2022-10-31T06:58:00;5.60;;;5.03;;
13807;SDS011;40769;51.512;5.494;2022-10-31T07:00:26;6.18;;;5.50;;
13807;SDS011;40769;51.512;5.494;2022-10-31T07:02:59;5.88;;;4.60;;
13807;SDS011;40769;51.512;5.494;2022-10-31T07:05:26;5.07;;;4.57;;
13807;SDS011;40769;51.512;5.494;2022-10-31T07:07:57;6.15;;;5.55;;
13807;SDS011;40769;51.512;5.494;2022-10-31T07:10:25;8.20;;;6.30;;
13807;SDS011;40769;51.512;5.494;2022-10-31T07:12:55;6.18;;;5.57;;
13807;SDS011;40769;51.512;5.494;2022-10-31T07:15:25;6.95;;;5.72;;
13807;SDS011;40769;51.512;5.494;2022-10-31T07:17:52;6.50;;;5.70;;
13807;SDS011;40769;51.512;5.494;2022-10-31T07:20:18;5.90;;;5.07;;
13807;SDS011;40769;51.512;5.494;2022-10-31T07:22:44;6.00;;;5.40;;
13807;SDS011;40769;51.512;5.494;2022-10-31T07:25:10;5.53;;;5.03;;
13807;SDS011;40769;51.512;5.494;2022-10-31T07:27:39;6.15;;;5.55;;
13807;SDS011;40769;51.512;5.494;2022-10-31T07:30:07;6.90;;;6.22;;
13807;SDS011;40769;51.512;5.494;2022-10-31T07:32:38;7.25;;;6.53;;
13807;SDS011;40769;51.512;5.494;2022-10-31T07:35:08;5.85;;;5.28;;
13807;SDS011;40769;51.512;5.494;2022-10-31T07:37:34;6.80;;;6.10;;
13807;SDS011;40769;51.512;5.494;2022-10-31T07:40:00;7.10;;;6.40;;
13807;SDS011;40769;51.512;5.494;2022-10-31T07:42:26;6.90;;;6.22;;
13807;SDS011;40769;51.512;5.494;2022-10-31T07:44:52;7.25;;;6.50;;
13807;SDS011;40769;51.512;5.494;2022-10-31T07:47:17;7.80;;;6.85;;
13807;SDS011;40769;51.512;5.494;2022-10-31T07:49:43;9.65;;;8.60;;
13807;SDS011;40769;51.512;5.494;2022-10-31T07:52:09;7.90;;;6.90;;
13807;SDS011;40769;51.512;5.494;2022-10-31T07:54:34;6.68;;;6.07;;
13807;SDS011;40769;51.512;5.494;2022-10-31T07:57:00;7.25;;;6.60;;
13807;SDS011;40769;51.512;5.494;2022-10-31T07:59:25;7.22;;;6.63;;
13807;SDS011;40769;51.512;5.494;2022-10-31T08:01:52;7.13;;;6.43;;
13807;SDS011;40769;51.512;5.494;2022-10-31T08:04:18;8.10;;;6.40;;
13807;SDS011;40769;51.512;5.494;2022-10-31T08:06:43;7.10;;;6.45;;
13807;SDS011;40769;51.512;5.494;2022-10-31T08:09:09;6.63;;;6.03;;
13807;SDS011;40769;51.512;5.494;2022-10-31T08:11:34;8.77;;;6.78;;
13807;SDS011;40769;51.512;5.494;2022-10-31T08:14:00;7.03;;;6.43;;
13807;SDS011;40769;51.512;5.494;2022-10-31T08:16:26;7.18;;;6.50;;
13807;SDS011;40769;51.512;5.494;2022-10-31T08:18:52;6.82;;;6.22;;
13807;SDS011;40769;51.512;5.494;2022-10-31T08:21:20;9.32;;;8.40;;
13807;SDS011;40769;51.512;5.494;2022-10-31T08:23:45;7.30;;;6.70;;
13807;SDS011;40769;51.512;5.494;2022-10-31T08:26:11;8.98;;;8.10;;
13807;SDS011;40769;51.512;5.494;2022-10-31T08:28:36;9.63;;;8.88;;
13807;SDS011;40769;51.512;5.494;2022-10-31T08:31:02;8.40;;;7.72;;
13807;SDS011;40769;51.512;5.494;2022-10-31T08:33:28;7.40;;;6.80;;
13807;SDS011;40769;51.512;5.494;2022-10-31T08:35:53;9.50;;;8.70;;
13807;SDS011;40769;51.512;5.494;2022-10-31T08:38:19;8.77;;;8.00;;
13807;SDS011;40769;51.512;5.494;2022-10-31T08:40:47;10.32;;;9.45;;
13807;SDS011;40769;51.512;5.494;2022-10-31T08:43:14;10.43;;;9.55;;
13807;SDS011;40769;51.512;5.494;2022-10-31T08:45:41;8.65;;;7.95;;
13807;SDS011;40769;51.512;5.494;2022-10-31T08:48:09;8.18;;;7.50;;
13807;SDS011;40769;51.512;5.494;2022-10-31T08:50:36;9.45;;;8.65;;
13807;SDS011;40769;51.512;5.494;2022-10-31T08:53:06;9.68;;;8.88;;
13807;SDS011;40769;51.512;5.494;2022-10-31T08:55:42;9.48;;;8.13;;
13807;SDS011;40769;51.512;5.494;2022-10-31T08:58:10;8.60;;;7.82;;
13807;SDS011;40769;51.512;5.494;2022-10-31T09:00:41;9.25;;;8.35;;
13807;SDS011;40769;51.512;5.494;2022-10-31T09:03:11;10.45;;;9.45;;
13807;SDS011;40769;51.512;5.494;2022-10-31T09:05:38;10.00;;;9.20;;
13807;SDS011;40769;51.512;5.494;2022-10-31T09:08:04;9.00;;;8.20;;
13807;SDS011;40769;51.512;5.494;2022-10-31T09:10:31;9.55;;;8.75;;
13807;SDS011;40769;51.512;5.494;2022-10-31T09:12:59;8.88;;;8.07;;
13807;SDS011;40769;51.512;5.494;2022-10-31T09:15:37;8.85;;;8.05;;
13807;SDS011;40769;51.512;5.494;2022-10-31T09:18:05;9.95;;;9.00;;
13807;SDS011;40769;51.512;5.494;2022-10-31T09:20:32;10.50;;;9.45;;
13807;SDS011;40769;51.512;5.494;2022-10-31T09:23:00;10.50;;;9.52;;
13807;SDS011;40769;51.512;5.494;2022-10-31T09:25:31;10.82;;;9.93;;
13807;SDS011;40769;51.512;5.494;2022-10-31T09:27:58;10.70;;;9.65;;
13807;SDS011;40769;51.512;5.494;2022-10-31T09:30:25;10.00;;;9.00;;
13807;SDS011;40769;51.512;5.494;2022-10-31T09:32:58;10.85;;;9.95;;
13807;SDS011;40769;51.512;5.494;2022-10-31T09:35:35;10.35;;;9.35;;
13807;SDS011;40769;51.512;5.494;2022-10-31T09:38:03;13.70;;;11.52;;
13807;SDS011;40769;51.512;5.494;2022-10-31T09:40:37;11.25;;;10.15;;
13807;SDS011;40769;51.512;5.494;2022-10-31T09:43:08;10.82;;;9.82;;
13807;SDS011;40769;51.512;5.494;2022-10-31T09:45:44;11.73;;;10.63;;
13807;SDS011;40769;51.512;5.494;2022-10-31T09:48:23;12.10;;;10.90;;
13807;SDS011;40769;51.512;5.494;2022-10-31T09:51:13;11.65;;;10.57;;
13807;SDS011;40769;51.512;5.494;2022-10-31T09:56:13;10.30;;;9.45;;
13807;SDS011;40769;51.512;5.494;2022-10-31T09:58:42;10.10;;;9.20;;
13807;SDS011;40769;51.512;5.494;2022-10-31T10:01:28;11.98;;;10.80;;
13807;SDS011;40769;51.512;5.494;2022-10-31T10:06:54;11.18;;;10.18;;
13807;SDS011;40769;51.512;5.494;2022-10-31T10:09:24;12.02;;;10.80;;
13807;SDS011;40769;51.512;5.494;2022-10-31T10:12:16;11.00;;;10.00;;
13807;SDS011;40769;51.512;5.494;2022-10-31T10:17:36;18.35;;;16.52;;
13807;SDS011;40769;51.512;5.494;2022-10-31T10:22:52;19.15;;;16.63;;
13807;SDS011;40769;51.512;5.494;2022-10-31T10:25:32;16.65;;;15.05;;
13807;SDS011;40769;51.512;5.494;2022-10-31T10:30:50;17.85;;;16.05;;
13807;SDS011;40769;51.512;5.494;2022-10-31T10:33:31;17.38;;;15.70;;
13807;SDS011;40769;51.512;5.494;2022-10-31T10:36:11;17.45;;;15.85;;
13807;SDS011;40769;51.512;5.494;2022-10-31T10:38:51;14.95;;;13.60;;
13807;SDS011;40769;51.512;5.494;2022-10-31T10:41:21;16.27;;;14.70;;
13807;SDS011;40769;51.512;5.494;2022-10-31T10:43:49;18.55;;;15.20;;
13807;SDS011;40769;51.512;5.494;2022-10-31T10:54:46;11.82;;;10.63;;
13807;SDS011;40769;51.512;5.494;2022-10-31T11:00:23;11.48;;;10.43;;
13807;SDS011;40769;51.512;5.494;2022-10-31T11:02:50;12.45;;;11.35;;
13807;SDS011;40769;51.512;5.494;2022-10-31T11:05:24;13.68;;;12.20;;
13807;SDS011;40769;51.512;5.494;2022-10-31T11:08:04;15.18;;;13.68;;
13807;SDS011;40769;51.512;5.494;2022-10-31T11:10:31;11.05;;;9.95;;
13807;SDS011;40769;51.512;5.494;2022-10-31T11:13:03;17.52;;;15.75;;
13807;SDS011;40769;51.512;5.494;2022-10-31T11:15:30;13.38;;;12.07;;
13807;SDS011;40769;51.512;5.494;2022-10-31T11:17:58;13.07;;;11.88;;
13807;SDS011;40769;51.512;5.494;2022-10-31T11:20:26;11.90;;;10.80;;
13807;SDS011;40769;51.512;5.494;2022-10-31T11:25:56;11.57;;;10.43;;
13807;SDS011;40769;51.512;5.494;2022-10-31T11:28:27;14.20;;;12.77;;
13807;SDS011;40769;51.512;5.494;2022-10-31T11:30:55;13.05;;;11.65;;
13807;SDS011;40769;51.512;5.494;2022-10-31T11:33:28;13.18;;;11.88;;
13807;SDS011;40769;51.512;5.494;2022-10-31T11:36:04;12.73;;;11.43;;
13807;SDS011;40769;51.512;5.494;2022-10-31T11:38:41;11.40;;;10.20;;
13807;SDS011;40769;51.512;5.494;2022-10-31T11:41:12;12.40;;;11.23;;
13807;SDS011;40769;51.512;5.494;2022-10-31T11:43:49;17.35;;;15.18;;
13807;SDS011;40769;51.512;5.494;2022-10-31T11:46:19;15.13;;;13.55;;
13807;SDS011;40769;51.512;5.494;2022-10-31T11:48:49;16.77;;;15.10;;
13807;SDS011;40769;51.512;5.494;2022-10-31T11:51:25;14.65;;;13.25;;
13807;SDS011;40769;51.512;5.494;2022-10-31T11:53:54;12.10;;;10.93;;
13807;SDS011;40769;51.512;5.494;2022-10-31T11:56:22;14.48;;;13.07;;
13807;SDS011;40769;51.512;5.494;2022-10-31T11:59:04;15.85;;;14.00;;
13807;SDS011;40769;51.512;5.494;2022-10-31T12:01:39;12.40;;;11.13;;
13807;SDS011;40769;51.512;5.494;2022-10-31T12:04:10;15.70;;;13.73;;
13807;SDS011;40769;51.512;5.494;2022-10-31T12:06:41;12.15;;;10.95;;
13807;SDS011;40769;51.512;5.494;2022-10-31T12:11:42;14.57;;;13.13;;
13807;SDS011;40769;51.512;5.494;2022-10-31T12:19:51;15.80;;;14.10;;
13807;SDS011;40769;51.512;5.494;2022-10-31T12:22:22;14.85;;;13.27;;
13807;SDS011;40769;51.512;5.494;2022-10-31T12:37:27;12.73;;;11.35;;
13807;SDS011;40769;51.512;5.494;2022-10-31T12:40:03;14.90;;;13.00;;
13807;SDS011;40769;51.512;5.494;2022-10-31T12:56:45;11.00;;;9.93;;
13807;SDS011;40769;51.512;5.494;2022-10-31T12:59:31;11.27;;;9.43;;
13807;SDS011;40769;51.512;5.494;2022-10-31T13:04:53;11.98;;;10.77;;
13807;SDS011;40769;51.512;5.494;2022-10-31T13:07:46;9.30;;;8.32;;
13807;SDS011;40769;51.512;5.494;2022-10-31T13:10:20;9.35;;;8.45;;
13807;SDS011;40769;51.512;5.494;2022-10-31T13:13:24;10.27;;;9.27;;
13807;SDS011;40769;51.512;5.494;2022-10-31T13:16:15;11.13;;;9.55;;
13807;SDS011;40769;51.512;5.494;2022-10-31T13:18:44;12.68;;;9.32;;
13807;SDS011;40769;51.512;5.494;2022-10-31T13:21:18;13.40;;;10.45;;
13807;SDS011;40769;51.512;5.494;2022-10-31T13:23:51;11.50;;;8.75;;
13807;SDS011;40769;51.512;5.494;2022-10-31T13:26:21;8.00;;;7.30;;
13807;SDS011;40769;51.512;5.494;2022-10-31T13:28:52;7.75;;;7.05;;
13807;SDS011;40769;51.512;5.494;2022-10-31T13:31:21;8.40;;;7.53;;
13807;SDS011;40769;51.512;5.494;2022-10-31T13:33:52;8.23;;;7.43;;
13807;SDS011;40769;51.512;5.494;2022-10-31T13:38:59;8.00;;;7.18;;
13807;SDS011;40769;51.512;5.494;2022-10-31T13:41:48;7.88;;;7.18;;
13807;SDS011;40769;51.512;5.494;2022-10-31T13:44:24;6.90;;;6.30;;
13807;SDS011;40769;51.512;5.494;2022-10-31T13:46:55;7.82;;;7.03;;
13807;SDS011;40769;51.512;5.494;2022-10-31T13:57:24;7.50;;;6.80;;
13807;SDS011;40769;51.512;5.494;2022-10-31T13:59:52;7.03;;;6.30;;
13807;SDS011;40769;51.512;5.494;2022-10-31T14:02:28;8.30;;;7.50;;
13807;SDS011;40769;51.512;5.494;2022-10-31T14:04:59;6.97;;;6.22;;
13807;SDS011;40769;51.512;5.494;2022-10-31T14:07:28;6.75;;;6.13;;
13807;SDS011;40769;51.512;5.494;2022-10-31T14:12:37;8.32;;;7.53;;
13807;SDS011;40769;51.512;5.494;2022-10-31T14:15:21;7.75;;;7.05;;
13807;SDS011;40769;51.512;5.494;2022-10-31T14:17:53;8.10;;;7.03;;
13807;SDS011;40769;51.512;5.494;2022-10-31T14:20:34;8.15;;;7.10;;
13807;SDS011;40769;51.512;5.494;2022-10-31T14:26:33;6.32;;;5.72;;
13807;SDS011;40769;51.512;5.494;2022-10-31T14:28:54;5.53;;;5.03;;
13807;SDS011;40769;51.512;5.494;2022-10-31T14:34:21;6.53;;;5.53;;
13807;SDS011;40769;51.512;5.494;2022-10-31T14:37:01;7.53;;;6.75;;
13807;SDS011;40769;51.512;5.494;2022-10-31T14:45:15;5.95;;;5.35;;
13807;SDS011;40769;51.512;5.494;2022-10-31T14:52:57;6.38;;;5.78;;
13807;SDS011;40769;51.512;5.494;2022-10-31T14:55:27;8.85;;;7.10;;
13807;SDS011;40769;51.512;5.494;2022-10-31T14:57:55;7.25;;;6.55;;
13807;SDS011;40769;51.512;5.494;2022-10-31T15:00:26;7.10;;;5.93;;
13807;SDS011;40769;51.512;5.494;2022-10-31T15:05:26;6.50;;;5.82;;
13807;SDS011;40769;51.512;5.494;2022-10-31T15:07:56;6.18;;;5.55;;
13807;SDS011;40769;51.512;5.494;2022-10-31T15:10:24;5.57;;;5.07;;
13807;SDS011;40769;51.512;5.494;2022-10-31T15:13:08;6.38;;;5.78;;
13807;SDS011;40769;51.512;5.494;2022-10-31T15:15:35;5.28;;;4.10;;
13807;SDS011;40769;51.512;5.494;2022-10-31T15:18:03;5.22;;;4.43;;
13807;SDS011;40769;51.512;5.494;2022-10-31T15:20:30;5.00;;;4.50;;
13807;SDS011;40769;51.512;5.494;2022-10-31T15:23:03;5.18;;;4.65;;
13807;SDS011;40769;51.512;5.494;2022-10-31T15:25:30;4.75;;;4.25;;
13807;SDS011;40769;51.512;5.494;2022-10-31T15:27:59;5.78;;;5.00;;
13807;SDS011;40769;51.512;5.494;2022-10-31T15:30:26;5.78;;;4.80;;
13807;SDS011;40769;51.512;5.494;2022-10-31T15:32:53;6.03;;;4.38;;
13807;SDS011;40769;51.512;5.494;2022-10-31T15:35:24;5.20;;;4.70;;
13807;SDS011;40769;51.512;5.494;2022-10-31T15:37:51;5.25;;;4.75;;
13807;SDS011;40769;51.512;5.494;2022-10-31T15:40:18;5.47;;;4.97;;
13807;SDS011;40769;51.512;5.494;2022-10-31T15:42:53;5.30;;;4.80;;
13807;SDS011;40769;51.512;5.494;2022-10-31T15:45:29;5.03;;;4.63;;
13807;SDS011;40769;51.512;5.494;2022-10-31T15:50:45;5.28;;;4.78;;
13807;SDS011;40769;51.512;5.494;2022-10-31T15:53:16;4.70;;;4.30;;
13807;SDS011;40769;51.512;5.494;2022-10-31T15:55:59;5.20;;;4.53;;
13807;SDS011;40769;51.512;5.494;2022-10-31T15:58:27;7.40;;;6.70;;
13807;SDS011;40769;51.512;5.494;2022-10-31T16:01:01;6.28;;;5.18;;
13807;SDS011;40769;51.512;5.494;2022-10-31T16:03:29;6.85;;;6.25;;
13807;SDS011;40769;51.512;5.494;2022-10-31T16:05:57;5.97;;;5.35;;
13807;SDS011;40769;51.512;5.494;2022-10-31T16:13:28;5.53;;;5.05;;
13807;SDS011;40769;51.512;5.494;2022-10-31T16:15:59;5.22;;;4.70;;
13807;SDS011;40769;51.512;5.494;2022-10-31T16:18:27;7.82;;;5.78;;
13807;SDS011;40769;51.512;5.494;2022-10-31T16:20:54;4.93;;;4.47;;
13807;SDS011;40769;51.512;5.494;2022-10-31T16:23:22;5.47;;;4.97;;
13807;SDS011;40769;51.512;5.494;2022-10-31T16:25:49;4.15;;;3.85;;
13807;SDS011;40769;51.512;5.494;2022-10-31T16:28:18;5.97;;;5.13;;
13807;SDS011;40769;51.512;5.494;2022-10-31T16:30:47;5.28;;;4.72;;
13807;SDS011;40769;51.512;5.494;2022-10-31T16:33:33;5.95;;;5.35;;
13807;SDS011;40769;51.512;5.494;2022-10-31T16:36:13;4.88;;;4.38;;
13807;SDS011;40769;51.512;5.494;2022-10-31T16:38:56;9.90;;;9.00;;
13807;SDS011;40769;51.512;5.494;2022-10-31T16:41:22;8.00;;;7.22;;
13807;SDS011;40769;51.512;5.494;2022-10-31T16:43:49;7.10;;;6.03;;
13807;SDS011;40769;51.512;5.494;2022-10-31T16:46:16;7.03;;;5.40;;
13807;SDS011;40769;51.512;5.494;2022-10-31T16:48:50;6.75;;;5.43;;
13807;SDS011;40769;51.512;5.494;2022-10-31T16:51:16;5.65;;;5.10;;
13807;SDS011;40769;51.512;5.494;2022-10-31T16:53:42;6.53;;;5.20;;
13807;SDS011;40769;51.512;5.494;2022-10-31T16:56:12;5.43;;;4.57;;
13807;SDS011;40769;51.512;5.494;2022-10-31T16:58:42;5.38;;;4.88;;
13807;SDS011;40769;51.512;5.494;2022-10-31T17:01:09;7.35;;;5.65;;
13807;SDS011;40769;51.512;5.494;2022-10-31T17:03:36;5.05;;;4.55;;
13807;SDS011;40769;51.512;5.494;2022-10-31T17:06:01;5.50;;;4.78;;
13807;SDS011;40769;51.512;5.494;2022-10-31T17:08:27;4.75;;;4.32;;
13807;SDS011;40769;51.512;5.494;2022-10-31T17:10:53;5.95;;;4.57;;
13807;SDS011;40769;51.512;5.494;2022-10-31T17:13:21;5.30;;;4.80;;
13807;SDS011;40769;51.512;5.494;2022-10-31T17:15:52;6.82;;;5.55;;